sensor_id;sensor_type;location;lat;lon;timestamp;temperature;humidity
3550;DHT22;45572;48.804;8.330;2023-06-22T00:00:30;23.80;84.70
3550;DHT22;45572;48.804;8.330;2023-06-22T00:02:58;23.70;84.90
3550;DHT22;45572;48.804;8.330;2023-06-22T00:05:26;23.70;85.40
3550;DHT22;45572;48.804;8.330;2023-06-22T00:07:55;23.60;85.40
3550;DHT22;45572;48.804;8.330;2023-06-22T00:10:23;23.50;85.90
3550;DHT22;45572;48.804;8.330;2023-06-22T00:12:51;23.40;85.60
3550;DHT22;45572;48.804;8.330;2023-06-22T00:15:18;23.30;86.20
3550;DHT22;45572;48.804;8.330;2023-06-22T00:17:46;23.30;86.40
3550;DHT22;45572;48.804;8.330;2023-06-22T00:20:14;23.30;86.40
3550;DHT22;45572;48.804;8.330;2023-06-22T00:22:43;23.30;85.70
3550;DHT22;45572;48.804;8.330;2023-06-22T00:25:12;23.30;85.30
3550;DHT22;45572;48.804;8.330;2023-06-22T00:27:39;23.40;84.90
3550;DHT22;45572;48.804;8.330;2023-06-22T00:30:08;23.60;84.60
3550;DHT22;45572;48.804;8.330;2023-06-22T00:32:36;23.60;84.70
3550;DHT22;45572;48.804;8.330;2023-06-22T00:35:04;23.60;84.10
3550;DHT22;45572;48.804;8.330;2023-06-22T00:37:32;23.70;84.20
3550;DHT22;45572;48.804;8.330;2023-06-22T00:40:00;23.60;84.30
3550;DHT22;45572;48.804;8.330;2023-06-22T00:42:29;23.50;84.40
3550;DHT22;45572;48.804;8.330;2023-06-22T00:44:57;23.50;84.50
3550;DHT22;45572;48.804;8.330;2023-06-22T00:47:26;23.50;84.50
3550;DHT22;45572;48.804;8.330;2023-06-22T00:49:55;23.60;84.40
3550;DHT22;45572;48.804;8.330;2023-06-22T00:52:24;23.60;84.30
3550;DHT22;45572;48.804;8.330;2023-06-22T00:54:56;23.40;84.80
3550;DHT22;45572;48.804;8.330;2023-06-22T00:57:26;23.50;84.90
3550;DHT22;45572;48.804;8.330;2023-06-22T00:59:56;23.50;84.80
3550;DHT22;45572;48.804;8.330;2023-06-22T01:02:24;23.50;84.80
3550;DHT22;45572;48.804;8.330;2023-06-22T01:04:52;23.50;84.80
3550;DHT22;45572;48.804;8.330;2023-06-22T01:07:30;23.50;84.90
3550;DHT22;45572;48.804;8.330;2023-06-22T01:10:06;23.50;85.10
3550;DHT22;45572;48.804;8.330;2023-06-22T01:12:40;23.40;85.30
3550;DHT22;45572;48.804;8.330;2023-06-22T01:15:15;23.30;85.30
3550;DHT22;45572;48.804;8.330;2023-06-22T01:17:45;23.20;85.90
3550;DHT22;45572;48.804;8.330;2023-06-22T01:20:16;23.20;86.10
3550;DHT22;45572;48.804;8.330;2023-06-22T01:22:59;23.10;86.00
3550;DHT22;45572;48.804;8.330;2023-06-22T01:25:36;23.10;86.10
3550;DHT22;45572;48.804;8.330;2023-06-22T01:28:24;23.00;86.50
3550;DHT22;45572;48.804;8.330;2023-06-22T01:30:55;23.00;86.60
3550;DHT22;45572;48.804;8.330;2023-06-22T01:33:33;22.80;86.90
3550;DHT22;45572;48.804;8.330;2023-06-22T01:36:02;22.70;87.40
3550;DHT22;45572;48.804;8.330;2023-06-22T01:38:31;22.70;87.60
3550;DHT22;45572;48.804;8.330;2023-06-22T01:41:00;22.60;87.50
3550;DHT22;45572;48.804;8.330;2023-06-22T01:43:29;22.60;87.80
3550;DHT22;45572;48.804;8.330;2023-06-22T01:46:01;22.50;87.90
3550;DHT22;45572;48.804;8.330;2023-06-22T01:48:30;22.50;87.90
3550;DHT22;45572;48.804;8.330;2023-06-22T01:50:58;22.40;88.20
3550;DHT22;45572;48.804;8.330;2023-06-22T01:53:25;22.30;88.10
3550;DHT22;45572;48.804;8.330;2023-06-22T01:55:53;22.30;88.40
3550;DHT22;45572;48.804;8.330;2023-06-22T01:58:23;22.20;88.60
3550;DHT22;45572;48.804;8.330;2023-06-22T02:00:56;22.20;88.70
3550;DHT22;45572;48.804;8.330;2023-06-22T02:03:30;22.20;88.90
3550;DHT22;45572;48.804;8.330;2023-06-22T02:06:04;22.20;89.00
3550;DHT22;45572;48.804;8.330;2023-06-22T02:08:40;22.00;89.10
3550;DHT22;45572;48.804;8.330;2023-06-22T02:11:10;21.70;89.70
3550;DHT22;45572;48.804;8.330;2023-06-22T02:13:39;21.60;90.10
3550;DHT22;45572;48.804;8.330;2023-06-22T02:16:11;21.70;90.20
3550;DHT22;45572;48.804;8.330;2023-06-22T02:18:46;21.70;90.30
3550;DHT22;45572;48.804;8.330;2023-06-22T02:21:17;21.80;90.40
3550;DHT22;45572;48.804;8.330;2023-06-22T02:23:46;21.80;89.90
3550;DHT22;45572;48.804;8.330;2023-06-22T02:26:16;21.70;89.90
3550;DHT22;45572;48.804;8.330;2023-06-22T02:28:44;21.70;90.00
3550;DHT22;45572;48.804;8.330;2023-06-22T02:31:16;21.70;90.10
3550;DHT22;45572;48.804;8.330;2023-06-22T02:33:46;21.60;90.10
3550;DHT22;45572;48.804;8.330;2023-06-22T02:36:18;21.60;90.00
3550;DHT22;45572;48.804;8.330;2023-06-22T02:38:48;21.60;89.90
3550;DHT22;45572;48.804;8.330;2023-06-22T02:41:17;21.60;90.20
3550;DHT22;45572;48.804;8.330;2023-06-22T02:43:45;21.50;90.10
3550;DHT22;45572;48.804;8.330;2023-06-22T02:46:13;21.40;90.30
3550;DHT22;45572;48.804;8.330;2023-06-22T02:48:42;21.30;90.50
3550;DHT22;45572;48.804;8.330;2023-06-22T02:51:14;21.30;90.80
3550;DHT22;45572;48.804;8.330;2023-06-22T02:53:42;21.30;90.90
3550;DHT22;45572;48.804;8.330;2023-06-22T02:56:13;21.30;90.80
3550;DHT22;45572;48.804;8.330;2023-06-22T02:58:41;21.30;90.90
3550;DHT22;45572;48.804;8.330;2023-06-22T03:01:11;21.30;91.00
3550;DHT22;45572;48.804;8.330;2023-06-22T03:03:41;21.10;91.40
3550;DHT22;45572;48.804;8.330;2023-06-22T03:06:09;21.00;91.50
3550;DHT22;45572;48.804;8.330;2023-06-22T03:08:43;21.00;91.80
3550;DHT22;45572;48.804;8.330;2023-06-22T03:11:11;21.00;91.90
3550;DHT22;45572;48.804;8.330;2023-06-22T03:13:39;21.00;92.00
3550;DHT22;45572;48.804;8.330;2023-06-22T03:16:06;21.00;92.20
3550;DHT22;45572;48.804;8.330;2023-06-22T03:18:36;21.00;92.30
3550;DHT22;45572;48.804;8.330;2023-06-22T03:21:04;21.00;92.10
3550;DHT22;45572;48.804;8.330;2023-06-22T03:23:31;21.10;92.10
3550;DHT22;45572;48.804;8.330;2023-06-22T03:26:01;21.10;92.10
3550;DHT22;45572;48.804;8.330;2023-06-22T03:28:29;21.10;92.10
3550;DHT22;45572;48.804;8.330;2023-06-22T03:30:57;21.10;92.30
3550;DHT22;45572;48.804;8.330;2023-06-22T03:33:25;21.10;92.10
3550;DHT22;45572;48.804;8.330;2023-06-22T03:35:57;21.10;91.90
3550;DHT22;45572;48.804;8.330;2023-06-22T03:38:26;21.00;91.90
3550;DHT22;45572;48.804;8.330;2023-06-22T03:40:57;21.10;91.60
3550;DHT22;45572;48.804;8.330;2023-06-22T03:43:27;21.10;91.70
3550;DHT22;45572;48.804;8.330;2023-06-22T03:45:55;21.10;91.60
3550;DHT22;45572;48.804;8.330;2023-06-22T03:48:23;20.80;92.00
3550;DHT22;45572;48.804;8.330;2023-06-22T03:50:51;20.80;92.20
3550;DHT22;45572;48.804;8.330;2023-06-22T03:53:19;20.90;92.20
3550;DHT22;45572;48.804;8.330;2023-06-22T03:55:48;20.80;92.30
3550;DHT22;45572;48.804;8.330;2023-06-22T03:58:17;20.80;92.30
3550;DHT22;45572;48.804;8.330;2023-06-22T04:00:49;20.90;92.20
3550;DHT22;45572;48.804;8.330;2023-06-22T04:03:18;20.90;92.30
3550;DHT22;45572;48.804;8.330;2023-06-22T04:05:46;20.90;92.20
3550;DHT22;45572;48.804;8.330;2023-06-22T04:08:14;20.90;92.20
3550;DHT22;45572;48.804;8.330;2023-06-22T04:10:42;21.00;92.20
3550;DHT22;45572;48.804;8.330;2023-06-22T04:13:10;21.10;92.00
3550;DHT22;45572;48.804;8.330;2023-06-22T04:15:38;21.20;91.80
3550;DHT22;45572;48.804;8.330;2023-06-22T04:18:07;21.10;91.80
3550;DHT22;45572;48.804;8.330;2023-06-22T04:20:35;21.10;91.80
3550;DHT22;45572;48.804;8.330;2023-06-22T04:23:03;21.00;92.00
3550;DHT22;45572;48.804;8.330;2023-06-22T04:25:31;21.10;92.00
3550;DHT22;45572;48.804;8.330;2023-06-22T04:27:58;21.20;91.80
3550;DHT22;45572;48.804;8.330;2023-06-22T04:30:29;21.30;91.60
3550;DHT22;45572;48.804;8.330;2023-06-22T04:32:58;21.40;91.40
3550;DHT22;45572;48.804;8.330;2023-06-22T04:35:28;21.40;91.00
3550;DHT22;45572;48.804;8.330;2023-06-22T04:37:58;21.50;90.90
3550;DHT22;45572;48.804;8.330;2023-06-22T04:40:26;21.50;90.90
3550;DHT22;45572;48.804;8.330;2023-06-22T04:42:54;21.60;90.80
3550;DHT22;45572;48.804;8.330;2023-06-22T04:45:22;21.70;90.70
3550;DHT22;45572;48.804;8.330;2023-06-22T04:47:52;21.60;90.90
3550;DHT22;45572;48.804;8.330;2023-06-22T04:50:20;21.70;90.60
3550;DHT22;45572;48.804;8.330;2023-06-22T04:52:51;21.90;90.50
3550;DHT22;45572;48.804;8.330;2023-06-22T04:55:19;21.90;90.30
3550;DHT22;45572;48.804;8.330;2023-06-22T04:57:48;21.80;90.70
3550;DHT22;45572;48.804;8.330;2023-06-22T05:00:17;21.90;90.40
3550;DHT22;45572;48.804;8.330;2023-06-22T05:02:46;21.90;90.60
3550;DHT22;45572;48.804;8.330;2023-06-22T05:05:15;22.00;90.80
3550;DHT22;45572;48.804;8.330;2023-06-22T05:07:44;22.20;90.30
3550;DHT22;45572;48.804;8.330;2023-06-22T05:10:16;22.20;89.80
3550;DHT22;45572;48.804;8.330;2023-06-22T05:12:43;22.30;90.00
3550;DHT22;45572;48.804;8.330;2023-06-22T05:15:11;22.40;89.60
3550;DHT22;45572;48.804;8.330;2023-06-22T05:17:39;22.40;89.60
3550;DHT22;45572;48.804;8.330;2023-06-22T05:20:10;22.50;89.60
3550;DHT22;45572;48.804;8.330;2023-06-22T05:22:38;22.70;89.10
3550;DHT22;45572;48.804;8.330;2023-06-22T05:25:09;22.90;88.70
3550;DHT22;45572;48.804;8.330;2023-06-22T05:27:39;23.20;87.90
3550;DHT22;45572;48.804;8.330;2023-06-22T05:30:08;23.40;87.10
3550;DHT22;45572;48.804;8.330;2023-06-22T05:32:36;23.70;86.70
3550;DHT22;45572;48.804;8.330;2023-06-22T05:35:04;23.80;85.70
3550;DHT22;45572;48.804;8.330;2023-06-22T05:37:33;23.70;85.60
3550;DHT22;45572;48.804;8.330;2023-06-22T05:40:01;24.00;85.30
3550;DHT22;45572;48.804;8.330;2023-06-22T05:42:30;24.20;84.70
3550;DHT22;45572;48.804;8.330;2023-06-22T05:45:01;24.40;84.10
3550;DHT22;45572;48.804;8.330;2023-06-22T05:47:31;24.70;83.50
3550;DHT22;45572;48.804;8.330;2023-06-22T05:50:00;25.00;83.30
3550;DHT22;45572;48.804;8.330;2023-06-22T05:52:37;25.20;82.10
3550;DHT22;45572;48.804;8.330;2023-06-22T05:55:07;25.40;81.40
3550;DHT22;45572;48.804;8.330;2023-06-22T05:57:34;25.70;80.90
3550;DHT22;45572;48.804;8.330;2023-06-22T06:00:06;26.00;80.20
3550;DHT22;45572;48.804;8.330;2023-06-22T06:02:38;26.40;79.40
3550;DHT22;45572;48.804;8.330;2023-06-22T06:05:14;27.00;78.40
3550;DHT22;45572;48.804;8.330;2023-06-22T06:07:45;27.40;76.10
3550;DHT22;45572;48.804;8.330;2023-06-22T06:10:14;28.00;75.60
3550;DHT22;45572;48.804;8.330;2023-06-22T06:12:43;28.40;74.00
3550;DHT22;45572;48.804;8.330;2023-06-22T06:15:14;29.00;73.30
3550;DHT22;45572;48.804;8.330;2023-06-22T06:17:46;29.30;70.70
3550;DHT22;45572;48.804;8.330;2023-06-22T06:20:14;29.70;70.90
3550;DHT22;45572;48.804;8.330;2023-06-22T06:22:43;30.60;68.70
3550;DHT22;45572;48.804;8.330;2023-06-22T06:25:14;31.30;67.10
3550;DHT22;45572;48.804;8.330;2023-06-22T06:27:46;32.00;65.50
3550;DHT22;45572;48.804;8.330;2023-06-22T06:30:19;32.50;63.30
3550;DHT22;45572;48.804;8.330;2023-06-22T06:32:50;32.50;62.20
3550;DHT22;45572;48.804;8.330;2023-06-22T06:35:17;32.90;61.30
3550;DHT22;45572;48.804;8.330;2023-06-22T06:37:49;33.50;60.20
3550;DHT22;45572;48.804;8.330;2023-06-22T06:40:19;33.90;59.50
3550;DHT22;45572;48.804;8.330;2023-06-22T06:42:48;34.50;58.20
3550;DHT22;45572;48.804;8.330;2023-06-22T06:45:20;35.30;57.10
3550;DHT22;45572;48.804;8.330;2023-06-22T06:47:51;35.90;56.10
3550;DHT22;45572;48.804;8.330;2023-06-22T06:50:21;36.50;54.30
3550;DHT22;45572;48.804;8.330;2023-06-22T06:52:49;37.10;53.10
3550;DHT22;45572;48.804;8.330;2023-06-22T06:55:17;37.40;53.00
3550;DHT22;45572;48.804;8.330;2023-06-22T06:57:45;37.90;52.50
3550;DHT22;45572;48.804;8.330;2023-06-22T07:00:15;38.10;50.90
3550;DHT22;45572;48.804;8.330;2023-06-22T07:02:46;38.30;50.90
3550;DHT22;45572;48.804;8.330;2023-06-22T07:05:15;38.80;50.70
3550;DHT22;45572;48.804;8.330;2023-06-22T07:07:43;39.50;50.00
3550;DHT22;45572;48.804;8.330;2023-06-22T07:10:11;39.70;48.80
3550;DHT22;45572;48.804;8.330;2023-06-22T07:12:39;39.10;49.50
3550;DHT22;45572;48.804;8.330;2023-06-22T07:15:08;38.90;49.80
3550;DHT22;45572;48.804;8.330;2023-06-22T07:17:37;39.20;50.10
3550;DHT22;45572;48.804;8.330;2023-06-22T07:20:08;39.50;50.00
3550;DHT22;45572;48.804;8.330;2023-06-22T07:22:37;39.90;48.70
3550;DHT22;45572;48.804;8.330;2023-06-22T07:25:06;40.00;48.50
3550;DHT22;45572;48.804;8.330;2023-06-22T07:27:42;40.60;47.30
3550;DHT22;45572;48.804;8.330;2023-06-22T07:30:14;41.10;47.10
3550;DHT22;45572;48.804;8.330;2023-06-22T07:32:45;41.30;47.10
3550;DHT22;45572;48.804;8.330;2023-06-22T07:35:16;41.70;45.70
3550;DHT22;45572;48.804;8.330;2023-06-22T07:37:44;41.70;44.80
3550;DHT22;45572;48.804;8.330;2023-06-22T07:40:14;41.90;44.80
3550;DHT22;45572;48.804;8.330;2023-06-22T07:42:42;42.20;45.90
3550;DHT22;45572;48.804;8.330;2023-06-22T07:45:10;42.90;44.00
3550;DHT22;45572;48.804;8.330;2023-06-22T07:47:38;43.00;43.20
3550;DHT22;45572;48.804;8.330;2023-06-22T07:50:06;42.70;43.00
3550;DHT22;45572;48.804;8.330;2023-06-22T07:52:35;43.00;43.40
3550;DHT22;45572;48.804;8.330;2023-06-22T07:55:03;42.90;43.00
3550;DHT22;45572;48.804;8.330;2023-06-22T07:57:31;42.00;44.90
3550;DHT22;45572;48.804;8.330;2023-06-22T08:00:02;40.60;46.80
3550;DHT22;45572;48.804;8.330;2023-06-22T08:02:42;39.70;49.50
3550;DHT22;45572;48.804;8.330;2023-06-22T08:05:10;38.80;49.50
3550;DHT22;45572;48.804;8.330;2023-06-22T08:07:49;37.60;52.30
3550;DHT22;45572;48.804;8.330;2023-06-22T08:10:18;36.80;53.30
3550;DHT22;45572;48.804;8.330;2023-06-22T08:12:49;36.00;55.30
3550;DHT22;45572;48.804;8.330;2023-06-22T08:15:18;35.40;56.10
3550;DHT22;45572;48.804;8.330;2023-06-22T08:17:48;34.30;58.20
3550;DHT22;45572;48.804;8.330;2023-06-22T08:20:15;33.10;60.80
3550;DHT22;45572;48.804;8.330;2023-06-22T08:22:43;32.20;62.30
3550;DHT22;45572;48.804;8.330;2023-06-22T08:25:14;31.10;65.90
3550;DHT22;45572;48.804;8.330;2023-06-22T08:27:45;30.90;67.40
3550;DHT22;45572;48.804;8.330;2023-06-22T08:30:14;30.90;66.00
3550;DHT22;45572;48.804;8.330;2023-06-22T08:32:42;31.20;66.50
3550;DHT22;45572;48.804;8.330;2023-06-22T08:35:10;32.00;65.70
3550;DHT22;45572;48.804;8.330;2023-06-22T08:37:39;33.20;64.60
3550;DHT22;45572;48.804;8.330;2023-06-22T08:40:08;34.60;60.40
3550;DHT22;45572;48.804;8.330;2023-06-22T08:42:40;35.90;56.50
3550;DHT22;45572;48.804;8.330;2023-06-22T08:45:09;36.10;55.20
3550;DHT22;45572;48.804;8.330;2023-06-22T08:47:37;35.80;55.60
3550;DHT22;45572;48.804;8.330;2023-06-22T08:50:06;36.10;55.90
3550;DHT22;45572;48.804;8.330;2023-06-22T08:52:35;36.50;54.90
3550;DHT22;45572;48.804;8.330;2023-06-22T08:55:04;37.20;53.70
3550;DHT22;45572;48.804;8.330;2023-06-22T08:57:32;37.70;52.70
3550;DHT22;45572;48.804;8.330;2023-06-22T09:00:01;38.30;51.10
3550;DHT22;45572;48.804;8.330;2023-06-22T09:02:31;39.00;51.20
3550;DHT22;45572;48.804;8.330;2023-06-22T09:05:03;39.20;49.10
3550;DHT22;45572;48.804;8.330;2023-06-22T09:07:33;40.10;47.90
3550;DHT22;45572;48.804;8.330;2023-06-22T09:10:02;40.60;46.10
3550;DHT22;45572;48.804;8.330;2023-06-22T09:12:32;39.70;49.20
3550;DHT22;45572;48.804;8.330;2023-06-22T09:15:04;40.80;48.10
3550;DHT22;45572;48.804;8.330;2023-06-22T09:17:38;41.70;46.10
3550;DHT22;45572;48.804;8.330;2023-06-22T09:20:07;42.30;46.40
3550;DHT22;45572;48.804;8.330;2023-06-22T09:22:38;43.20;43.70
3550;DHT22;45572;48.804;8.330;2023-06-22T09:25:08;43.60;42.10
3550;DHT22;45572;48.804;8.330;2023-06-22T09:27:35;42.90;43.80
3550;DHT22;45572;48.804;8.330;2023-06-22T09:30:09;42.20;44.50
3550;DHT22;45572;48.804;8.330;2023-06-22T09:32:37;41.30;45.60
3550;DHT22;45572;48.804;8.330;2023-06-22T09:35:05;40.30;47.70
3550;DHT22;45572;48.804;8.330;2023-06-22T09:37:35;39.60;47.70
3550;DHT22;45572;48.804;8.330;2023-06-22T09:40:03;39.60;49.00
3550;DHT22;45572;48.804;8.330;2023-06-22T09:42:35;39.80;49.00
3550;DHT22;45572;48.804;8.330;2023-06-22T09:45:04;39.70;49.50
3550;DHT22;45572;48.804;8.330;2023-06-22T09:47:38;39.70;47.70
3550;DHT22;45572;48.804;8.330;2023-06-22T09:50:08;39.40;49.10
3550;DHT22;45572;48.804;8.330;2023-06-22T09:52:36;38.50;49.70
3550;DHT22;45572;48.804;8.330;2023-06-22T09:55:09;37.70;51.30
3550;DHT22;45572;48.804;8.330;2023-06-22T09:57:41;37.30;52.90
3550;DHT22;45572;48.804;8.330;2023-06-22T10:00:11;36.80;53.50
3550;DHT22;45572;48.804;8.330;2023-06-22T10:02:44;36.20;55.10
3550;DHT22;45572;48.804;8.330;2023-06-22T10:05:12;35.60;54.50
3550;DHT22;45572;48.804;8.330;2023-06-22T10:07:41;34.90;57.20
3550;DHT22;45572;48.804;8.330;2023-06-22T10:10:13;34.90;57.60
3550;DHT22;45572;48.804;8.330;2023-06-22T10:12:45;35.20;56.70
3550;DHT22;45572;48.804;8.330;2023-06-22T10:15:18;35.90;55.60
3550;DHT22;45572;48.804;8.330;2023-06-22T10:17:51;35.50;55.10
3550;DHT22;45572;48.804;8.330;2023-06-22T10:20:21;35.90;55.90
3550;DHT22;45572;48.804;8.330;2023-06-22T10:22:51;36.10;55.30
3550;DHT22;45572;48.804;8.330;2023-06-22T10:25:21;35.90;55.00
3550;DHT22;45572;48.804;8.330;2023-06-22T10:27:50;35.70;55.90
3550;DHT22;45572;48.804;8.330;2023-06-22T10:30:18;35.60;55.90
3550;DHT22;45572;48.804;8.330;2023-06-22T10:32:46;35.40;56.00
3550;DHT22;45572;48.804;8.330;2023-06-22T10:35:15;35.40;56.40
3550;DHT22;45572;48.804;8.330;2023-06-22T10:37:44;35.50;56.90
3550;DHT22;45572;48.804;8.330;2023-06-22T10:40:13;35.40;56.60
3550;DHT22;45572;48.804;8.330;2023-06-22T10:42:42;35.30;56.90
3550;DHT22;45572;48.804;8.330;2023-06-22T10:45:10;35.20;58.30
3550;DHT22;45572;48.804;8.330;2023-06-22T10:47:38;35.50;57.40
3550;DHT22;45572;48.804;8.330;2023-06-22T10:50:09;35.60;56.30
3550;DHT22;45572;48.804;8.330;2023-06-22T10:52:40;35.60;53.90
3550;DHT22;45572;48.804;8.330;2023-06-22T10:55:09;35.50;54.40
3550;DHT22;45572;48.804;8.330;2023-06-22T10:57:40;35.50;54.40
3550;DHT22;45572;48.804;8.330;2023-06-22T11:00:14;35.40;55.50
3550;DHT22;45572;48.804;8.330;2023-06-22T11:02:42;35.10;55.60
3550;DHT22;45572;48.804;8.330;2023-06-22T11:05:13;35.20;57.30
3550;DHT22;45572;48.804;8.330;2023-06-22T11:07:44;35.60;58.10
3550;DHT22;45572;48.804;8.330;2023-06-22T11:10:13;36.50;56.70
3550;DHT22;45572;48.804;8.330;2023-06-22T11:12:42;36.70;53.70
3550;DHT22;45572;48.804;8.330;2023-06-22T11:15:10;37.10;53.30
3550;DHT22;45572;48.804;8.330;2023-06-22T11:17:43;36.90;53.20
3550;DHT22;45572;48.804;8.330;2023-06-22T11:20:11;36.80;55.50
3550;DHT22;45572;48.804;8.330;2023-06-22T11:22:41;37.00;54.70
3550;DHT22;45572;48.804;8.330;2023-06-22T11:25:11;36.40;55.00
3550;DHT22;45572;48.804;8.330;2023-06-22T11:27:39;36.60;56.10
3550;DHT22;45572;48.804;8.330;2023-06-22T11:30:09;36.40;56.30
3550;DHT22;45572;48.804;8.330;2023-06-22T11:32:37;35.90;56.60
3550;DHT22;45572;48.804;8.330;2023-06-22T11:35:06;35.60;57.60
3550;DHT22;45572;48.804;8.330;2023-06-22T11:37:37;35.70;58.40
3550;DHT22;45572;48.804;8.330;2023-06-22T11:40:06;35.60;57.70
3550;DHT22;45572;48.804;8.330;2023-06-22T11:42:39;35.50;58.80
3550;DHT22;45572;48.804;8.330;2023-06-22T11:45:09;35.40;58.20
3550;DHT22;45572;48.804;8.330;2023-06-22T11:47:37;35.30;58.10
3550;DHT22;45572;48.804;8.330;2023-06-22T11:50:10;34.90;60.60
3550;DHT22;45572;48.804;8.330;2023-06-22T11:52:38;35.10;60.50
3550;DHT22;45572;48.804;8.330;2023-06-22T11:55:06;35.10;59.60
3550;DHT22;45572;48.804;8.330;2023-06-22T11:57:36;35.10;60.20
3550;DHT22;45572;48.804;8.330;2023-06-22T12:00:08;34.90;60.00
3550;DHT22;45572;48.804;8.330;2023-06-22T12:02:45;34.80;60.20
3550;DHT22;45572;48.804;8.330;2023-06-22T12:05:13;34.80;60.80
3550;DHT22;45572;48.804;8.330;2023-06-22T12:07:41;35.10;60.50
3550;DHT22;45572;48.804;8.330;2023-06-22T12:10:09;35.00;60.00
3550;DHT22;45572;48.804;8.330;2023-06-22T12:12:43;35.20;59.00
3550;DHT22;45572;48.804;8.330;2023-06-22T12:15:15;34.30;59.40
3550;DHT22;45572;48.804;8.330;2023-06-22T12:17:46;33.50;62.20
3550;DHT22;45572;48.804;8.330;2023-06-22T12:20:16;33.00;62.00
3550;DHT22;45572;48.804;8.330;2023-06-22T12:22:45;33.20;62.70
3550;DHT22;45572;48.804;8.330;2023-06-22T12:25:14;33.30;61.80
3550;DHT22;45572;48.804;8.330;2023-06-22T12:27:45;33.20;62.60
3550;DHT22;45572;48.804;8.330;2023-06-22T12:30:13;33.30;64.00
3550;DHT22;45572;48.804;8.330;2023-06-22T12:32:43;33.30;63.40
3550;DHT22;45572;48.804;8.330;2023-06-22T12:35:15;33.30;64.90
3550;DHT22;45572;48.804;8.330;2023-06-22T12:37:43;33.20;65.30
3550;DHT22;45572;48.804;8.330;2023-06-22T12:40:11;33.40;64.50
3550;DHT22;45572;48.804;8.330;2023-06-22T12:42:39;33.50;64.00
3550;DHT22;45572;48.804;8.330;2023-06-22T12:45:08;33.90;62.90
3550;DHT22;45572;48.804;8.330;2023-06-22T12:47:38;33.90;62.10
3550;DHT22;45572;48.804;8.330;2023-06-22T12:50:09;34.10;62.60
3550;DHT22;45572;48.804;8.330;2023-06-22T12:52:40;34.20;62.80
3550;DHT22;45572;48.804;8.330;2023-06-22T12:55:10;34.60;60.80
3550;DHT22;45572;48.804;8.330;2023-06-22T12:57:38;34.80;60.80
3550;DHT22;45572;48.804;8.330;2023-06-22T13:00:08;34.80;60.30
3550;DHT22;45572;48.804;8.330;2023-06-22T13:02:37;34.50;60.80
3550;DHT22;45572;48.804;8.330;2023-06-22T13:05:05;34.60;60.80
3550;DHT22;45572;48.804;8.330;2023-06-22T13:07:34;34.60;60.40
3550;DHT22;45572;48.804;8.330;2023-06-22T13:10:02;34.90;60.80
3550;DHT22;45572;48.804;8.330;2023-06-22T13:12:30;35.10;60.70
3550;DHT22;45572;48.804;8.330;2023-06-22T13:14:58;35.40;61.40
3550;DHT22;45572;48.804;8.330;2023-06-22T13:17:26;35.50;61.40
3550;DHT22;45572;48.804;8.330;2023-06-22T13:19:54;35.70;60.00
3550;DHT22;45572;48.804;8.330;2023-06-22T13:22:30;35.50;58.70
3550;DHT22;45572;48.804;8.330;2023-06-22T13:25:00;35.00;60.50
3550;DHT22;45572;48.804;8.330;2023-06-22T13:27:28;34.90;61.00
3550;DHT22;45572;48.804;8.330;2023-06-22T13:29:56;34.80;63.70
3550;DHT22;45572;48.804;8.330;2023-06-22T13:32:24;34.80;63.50
3550;DHT22;45572;48.804;8.330;2023-06-22T13:34:53;34.70;63.10
3550;DHT22;45572;48.804;8.330;2023-06-22T13:37:23;34.70;63.80
3550;DHT22;45572;48.804;8.330;2023-06-22T13:39:52;34.70;63.30
3550;DHT22;45572;48.804;8.330;2023-06-22T13:42:29;34.70;64.00
3550;DHT22;45572;48.804;8.330;2023-06-22T13:44:58;34.60;63.80
3550;DHT22;45572;48.804;8.330;2023-06-22T13:47:26;34.70;62.90
3550;DHT22;45572;48.804;8.330;2023-06-22T13:49:56;34.50;62.10
3550;DHT22;45572;48.804;8.330;2023-06-22T13:52:25;34.50;62.50
3550;DHT22;45572;48.804;8.330;2023-06-22T13:54:53;34.40;63.40
3550;DHT22;45572;48.804;8.330;2023-06-22T13:57:21;34.30;63.70
3550;DHT22;45572;48.804;8.330;2023-06-22T13:59:50;34.10;62.50
3550;DHT22;45572;48.804;8.330;2023-06-22T14:02:21;33.80;63.20
3550;DHT22;45572;48.804;8.330;2023-06-22T14:04:49;33.50;63.50
3550;DHT22;45572;48.804;8.330;2023-06-22T14:07:18;33.30;63.60
3550;DHT22;45572;48.804;8.330;2023-06-22T14:09:47;32.70;64.50
3550;DHT22;45572;48.804;8.330;2023-06-22T14:12:18;32.40;65.90
3550;DHT22;45572;48.804;8.330;2023-06-22T14:14:47;32.60;67.30
3550;DHT22;45572;48.804;8.330;2023-06-22T14:17:17;32.70;67.50
3550;DHT22;45572;48.804;8.330;2023-06-22T14:19:52;32.80;65.40
3550;DHT22;45572;48.804;8.330;2023-06-22T14:22:20;32.90;66.70
3550;DHT22;45572;48.804;8.330;2023-06-22T14:24:52;32.90;64.70
3550;DHT22;45572;48.804;8.330;2023-06-22T14:27:23;32.80;63.70
3550;DHT22;45572;48.804;8.330;2023-06-22T14:29:51;32.70;65.20
3550;DHT22;45572;48.804;8.330;2023-06-22T14:32:21;32.60;63.50
3550;DHT22;45572;48.804;8.330;2023-06-22T14:34:51;32.60;64.80
3550;DHT22;45572;48.804;8.330;2023-06-22T14:37:21;32.80;63.60
3550;DHT22;45572;48.804;8.330;2023-06-22T14:39:52;33.00;63.70
3550;DHT22;45572;48.804;8.330;2023-06-22T14:42:19;33.10;62.50
3550;DHT22;45572;48.804;8.330;2023-06-22T14:44:51;33.20;61.00
3550;DHT22;45572;48.804;8.330;2023-06-22T14:47:21;33.20;61.10
3550;DHT22;45572;48.804;8.330;2023-06-22T14:49:54;33.30;61.70
3550;DHT22;45572;48.804;8.330;2023-06-22T14:52:22;33.40;62.60
3550;DHT22;45572;48.804;8.330;2023-06-22T14:54:50;33.20;62.00
3550;DHT22;45572;48.804;8.330;2023-06-22T14:57:19;33.20;62.70
3550;DHT22;45572;48.804;8.330;2023-06-22T14:59:49;33.30;63.20
3550;DHT22;45572;48.804;8.330;2023-06-22T15:02:17;33.10;63.10
3550;DHT22;45572;48.804;8.330;2023-06-22T15:04:47;33.00;62.20
3550;DHT22;45572;48.804;8.330;2023-06-22T15:07:19;33.20;62.50
3550;DHT22;45572;48.804;8.330;2023-06-22T15:09:47;33.30;61.20
3550;DHT22;45572;48.804;8.330;2023-06-22T15:12:15;33.40;60.90
3550;DHT22;45572;48.804;8.330;2023-06-22T15:14:43;33.50;62.50
3550;DHT22;45572;48.804;8.330;2023-06-22T15:17:11;33.40;62.50
3550;DHT22;45572;48.804;8.330;2023-06-22T15:19:40;33.40;62.00
3550;DHT22;45572;48.804;8.330;2023-06-22T15:22:09;33.40;61.50
3550;DHT22;45572;48.804;8.330;2023-06-22T15:24:37;33.40;61.40
3550;DHT22;45572;48.804;8.330;2023-06-22T15:27:05;33.60;62.40
3550;DHT22;45572;48.804;8.330;2023-06-22T15:29:34;33.70;59.90
3550;DHT22;45572;48.804;8.330;2023-06-22T15:32:05;33.60;59.30
3550;DHT22;45572;48.804;8.330;2023-06-22T15:34:33;33.30;59.60
3550;DHT22;45572;48.804;8.330;2023-06-22T15:37:04;33.00;57.50
3550;DHT22;45572;48.804;8.330;2023-06-22T15:39:35;32.80;57.40
3550;DHT22;45572;48.804;8.330;2023-06-22T15:42:03;32.70;57.10
3550;DHT22;45572;48.804;8.330;2023-06-22T15:44:31;32.60;57.90
3550;DHT22;45572;48.804;8.330;2023-06-22T15:46:59;32.50;56.80
3550;DHT22;45572;48.804;8.330;2023-06-22T15:49:28;32.40;57.70
3550;DHT22;45572;48.804;8.330;2023-06-22T15:52:00;32.30;58.10
3550;DHT22;45572;48.804;8.330;2023-06-22T15:54:30;32.50;59.00
3550;DHT22;45572;48.804;8.330;2023-06-22T15:57:00;32.70;58.60
3550;DHT22;45572;48.804;8.330;2023-06-22T15:59:28;32.80;58.50